createdAt,value
2022-11-20T00:01:09.985Z,21.60
2022-11-20T00:03:36.506Z,21.85
2022-11-20T00:06:04.354Z,19.02
2022-11-20T00:08:30.837Z,19.77
2022-11-20T00:10:57.320Z,18.35
2022-11-20T00:13:24.190Z,16.30
2022-11-20T00:15:58.335Z,18.70
2022-11-20T00:18:24.908Z,17.30
2022-11-20T00:20:51.273Z,15.68
2022-11-20T00:23:17.938Z,17.73
2022-11-20T00:25:44.477Z,16.10
2022-11-20T00:28:10.829Z,15.25
2022-11-20T00:30:37.233Z,15.95
2022-11-20T00:33:03.847Z,14.23
2022-11-20T00:35:30.839Z,15.10
2022-11-20T00:37:57.285Z,13.83
2022-11-20T00:40:23.654Z,17.02
2022-11-20T00:42:50.185Z,18.40
2022-11-20T00:45:16.547Z,17.33
2022-11-20T00:47:42.955Z,17.10
2022-11-20T00:50:09.721Z,16.55
2022-11-20T00:52:36.099Z,14.40
2022-11-20T00:55:02.554Z,19.00
2022-11-20T00:57:28.981Z,16.98
2022-11-20T00:59:55.374Z,16.63
2022-11-20T01:02:21.846Z,19.08
2022-11-20T01:04:48.241Z,12.02
2022-11-20T01:07:14.718Z,15.23
2022-11-20T01:09:41.281Z,12.70
2022-11-20T01:12:07.631Z,15.93
2022-11-20T01:14:34.081Z,14.60
2022-11-20T01:17:00.797Z,14.32
2022-11-20T01:19:27.125Z,14.90
2022-11-20T01:21:55.838Z,13.25
2022-11-20T01:24:23.154Z,14.55
2022-11-20T01:26:51.965Z,13.20
2022-11-20T01:29:22.084Z,13.07
2022-11-20T01:31:49.200Z,14.48
2022-11-20T01:34:19.449Z,13.35
2022-11-20T01:36:46.895Z,14.43
2022-11-20T01:39:22.854Z,13.40
2022-11-20T01:42:10.325Z,12.05
2022-11-20T01:45:00.376Z,12.75
2022-11-20T01:47:36.380Z,17.05
2022-11-20T01:50:19.746Z,14.90
2022-11-20T01:52:55.926Z,11.40
2022-11-20T01:55:26.976Z,18.27
2022-11-20T01:57:53.920Z,16.70
2022-11-20T02:00:21.552Z,13.82
2022-11-20T02:03:06.393Z,13.27
2022-11-20T02:05:37.785Z,13.00
2022-11-20T02:08:06.777Z,12.15
2022-11-20T02:10:34.407Z,13.88
2022-11-20T02:13:19.540Z,15.57
2022-11-20T02:15:46.949Z,11.25
2022-11-20T02:18:16.927Z,12.93
2022-11-20T02:20:46.236Z,14.45
2022-11-20T02:23:16.469Z,11.97
2022-11-20T02:25:43.797Z,12.95
2022-11-20T02:28:11.131Z,13.18
2022-11-20T02:30:37.578Z,14.25
2022-11-20T02:33:04.059Z,11.98
2022-11-20T02:35:30.456Z,13.70
2022-11-20T02:38:02.497Z,12.90
2022-11-20T02:40:29.687Z,13.52
2022-11-20T02:42:57.797Z,11.38
2022-11-20T02:45:25.515Z,11.10
2022-11-20T02:47:52.625Z,13.52
2022-11-20T02:50:19.363Z,13.43
2022-11-20T02:52:45.837Z,13.38
2022-11-20T02:55:12.602Z,14.60
2022-11-20T02:57:39.057Z,13.45
2022-11-20T03:00:07.700Z,10.35
2022-11-20T03:02:34.319Z,10.60
2022-11-20T03:05:00.665Z,12.52
2022-11-20T03:07:27.076Z,12.45
2022-11-20T03:09:53.473Z,12.40
2022-11-20T03:12:19.820Z,11.97
2022-11-20T03:14:51.620Z,13.70
2022-11-20T03:17:19.321Z,11.88
2022-11-20T03:19:45.689Z,13.07
2022-11-20T03:22:12.181Z,12.83
2022-11-20T03:24:38.583Z,9.77
2022-11-20T03:27:05.209Z,13.20
2022-11-20T03:29:31.551Z,13.07
2022-11-20T03:31:57.970Z,12.73
2022-11-20T03:34:24.583Z,9.97
2022-11-20T03:36:50.964Z,11.65
2022-11-20T03:39:17.323Z,16.90
2022-11-20T03:41:44.324Z,13.77
2022-11-20T03:44:12.060Z,12.07
2022-11-20T03:46:38.838Z,11.70
2022-11-20T03:49:05.771Z,13.48
2022-11-20T03:51:34.764Z,11.70
2022-11-20T03:54:04.347Z,11.27
2022-11-20T03:56:33.857Z,10.35
2022-11-20T03:59:00.447Z,12.57
2022-11-20T04:01:29.347Z,11.87
2022-11-20T04:03:57.390Z,13.27
2022-11-20T04:06:30.534Z,13.82
2022-11-20T04:08:58.623Z,10.57
2022-11-20T04:11:30.265Z,17.83
2022-11-20T04:14:02.364Z,10.23
2022-11-20T04:16:34.664Z,12.52
2022-11-20T04:19:03.266Z,9.00
2022-11-20T04:21:30.278Z,12.77
2022-11-20T04:23:57.202Z,9.48
2022-11-20T04:26:26.687Z,12.43
2022-11-20T04:28:53.128Z,10.75
2022-11-20T04:31:23.197Z,14.20
2022-11-20T04:33:49.826Z,13.70
2022-11-20T04:36:25.879Z,12.20
2022-11-20T04:38:59.436Z,11.87
2022-11-20T04:41:28.978Z,14.88
2022-11-20T04:44:00.469Z,11.45
2022-11-20T04:46:28.380Z,10.80
2022-11-20T04:48:55.265Z,13.57
2022-11-20T04:51:21.616Z,11.63
2022-11-20T04:53:48.342Z,12.57
2022-11-20T04:56:15.329Z,10.60
2022-11-20T04:58:41.872Z,11.38
2022-11-20T05:01:14.626Z,11.75
2022-11-20T05:03:42.873Z,11.10
2022-11-20T05:06:11.698Z,13.60
2022-11-20T05:08:38.554Z,16.40
2022-11-20T05:11:11.075Z,10.80
2022-11-20T05:13:38.181Z,9.82
2022-11-20T05:16:14.327Z,11.93
2022-11-20T05:18:41.825Z,13.65
2022-11-20T05:21:09.049Z,11.38
2022-11-20T05:23:36.014Z,13.68
2022-11-20T05:26:02.626Z,14.83
2022-11-20T05:28:31.150Z,9.93
2022-11-20T05:31:04.595Z,13.90
2022-11-20T05:33:31.002Z,12.88
2022-11-20T05:36:01.090Z,13.40
2022-11-20T05:38:27.540Z,11.25
2022-11-20T05:40:53.944Z,12.23
2022-11-20T05:43:20.272Z,12.05
2022-11-20T05:45:55.729Z,11.37
2022-11-20T05:48:22.177Z,14.05
2022-11-20T05:50:49.423Z,9.18
2022-11-20T05:53:15.878Z,13.27
2022-11-20T05:55:42.552Z,12.60
2022-11-20T05:58:08.996Z,15.27
2022-11-20T06:00:36.308Z,13.55
2022-11-20T06:03:02.994Z,13.85
2022-11-20T06:05:29.493Z,10.63
2022-11-20T06:07:55.913Z,14.70
2022-11-20T06:10:22.329Z,13.65
2022-11-20T06:12:48.681Z,14.65
2022-11-20T06:15:15.048Z,13.53
2022-11-20T06:17:41.410Z,13.20
2022-11-20T06:20:08.267Z,11.55
2022-11-20T06:22:34.591Z,16.15
2022-11-20T06:25:00.955Z,8.63
2022-11-20T06:27:28.163Z,10.20
2022-11-20T06:29:54.569Z,11.93
2022-11-20T06:32:21.001Z,12.25
2022-11-20T06:34:47.408Z,12.43
2022-11-20T06:37:13.806Z,10.60
2022-11-20T06:39:40.347Z,12.55
2022-11-20T06:42:06.704Z,12.07
2022-11-20T06:44:33.720Z,15.07
2022-11-20T06:47:00.620Z,15.25
2022-11-20T06:49:27.023Z,16.42
2022-11-20T06:51:53.422Z,12.45
2022-11-20T06:54:19.787Z,13.05
2022-11-20T06:56:49.658Z,14.68
2022-11-20T06:59:16.083Z,12.90
2022-11-20T07:01:42.439Z,12.33
2022-11-20T07:04:08.853Z,12.73
2022-11-20T07:06:35.282Z,13.30
2022-11-20T07:09:02.550Z,13.00
2022-11-20T07:11:28.914Z,12.27
2022-11-20T07:13:55.431Z,11.52
2022-11-20T07:16:21.756Z,13.10
2022-11-20T07:18:50.794Z,11.83
2022-11-20T07:21:17.669Z,14.52
2022-11-20T07:23:44.027Z,13.98
2022-11-20T07:26:12.298Z,13.67
2022-11-20T07:28:39.846Z,12.60
2022-11-20T07:31:08.317Z,13.65
2022-11-20T07:33:34.864Z,12.85
2022-11-20T07:36:01.496Z,12.07
2022-11-20T07:38:28.265Z,12.30
2022-11-20T07:40:56.633Z,11.80
2022-11-20T07:43:23.016Z,12.55
2022-11-20T07:45:49.571Z,14.40
2022-11-20T07:48:16.052Z,11.52
2022-11-20T07:50:42.647Z,11.93
2022-11-20T07:53:09.142Z,16.07
2022-11-20T07:55:35.587Z,18.23
2022-11-20T07:58:01.949Z,17.67
2022-11-20T08:00:28.924Z,14.52
2022-11-20T08:02:55.740Z,18.63
2022-11-20T08:05:22.893Z,14.25
2022-11-20T08:07:49.351Z,14.68
2022-11-20T08:10:17.364Z,13.13
2022-11-20T08:13:11.492Z,15.83
2022-11-20T08:15:42.791Z,12.02
2022-11-20T08:18:34.673Z,19.52
2022-11-20T08:21:08.428Z,15.70
2022-11-20T08:23:41.826Z,12.73
2022-11-20T08:26:08.723Z,14.18
2022-11-20T08:28:35.774Z,16.90
2022-11-20T08:31:03.342Z,17.08
2022-11-20T08:33:30.805Z,15.73
2022-11-20T08:36:02.246Z,16.70
2022-11-20T08:38:28.819Z,17.48
2022-11-20T08:41:21.589Z,15.73
2022-11-20T08:43:48.340Z,14.90
2022-11-20T08:46:15.229Z,18.50
2022-11-20T08:48:42.047Z,15.57
2022-11-20T08:51:08.402Z,16.67
2022-11-20T08:53:34.855Z,17.93
2022-11-20T08:56:01.822Z,13.00
2022-11-20T08:58:28.460Z,16.60
2022-11-20T09:00:54.928Z,16.77
2022-11-20T09:03:21.365Z,15.23
2022-11-20T09:05:47.752Z,19.70
2022-11-20T09:08:14.249Z,17.27
2022-11-20T09:10:40.827Z,17.98
2022-11-20T09:13:07.414Z,13.68
2022-11-20T09:15:34.955Z,19.67
2022-11-20T09:18:03.672Z,13.43
2022-11-20T09:20:31.139Z,16.05
2022-11-20T09:22:58.833Z,19.23
2022-11-20T09:25:25.767Z,18.73
2022-11-20T09:27:59.572Z,14.57
2022-11-20T09:30:26.826Z,15.95
2022-11-20T09:32:53.383Z,20.73
2022-11-20T09:35:20.473Z,17.67
2022-11-20T09:37:47.418Z,17.60
2022-11-20T09:40:29.800Z,15.75
2022-11-20T09:43:18.905Z,19.55
2022-11-20T09:45:57.851Z,15.95
2022-11-20T09:48:43.581Z,16.87
2022-11-20T09:51:13.080Z,17.02
2022-11-20T09:54:10.940Z,19.92
2022-11-20T09:56:43.325Z,13.60
2022-11-20T09:59:23.646Z,18.50
2022-11-20T10:01:51.242Z,18.07
2022-11-20T10:04:20.875Z,20.10
2022-11-20T10:09:57.855Z,18.13
2022-11-20T10:12:42.840Z,16.95
2022-11-20T10:15:35.576Z,18.10
2022-11-20T10:18:04.947Z,21.23
2022-11-20T10:20:58.247Z,16.92
2022-11-20T10:23:43.954Z,18.73
2022-11-20T10:26:23.912Z,20.77
2022-11-20T10:29:16.848Z,23.30
2022-11-20T10:31:57.734Z,19.40
2022-11-20T10:34:30.645Z,24.20
2022-11-20T10:37:04.866Z,16.23
2022-11-20T10:39:38.911Z,19.20
2022-11-20T10:42:12.178Z,19.50
2022-11-20T10:45:06.079Z,18.90
2022-11-20T10:47:34.634Z,22.55
2022-11-20T10:50:10.693Z,19.60
2022-11-20T10:52:37.079Z,17.70
2022-11-20T10:55:18.216Z,19.77
2022-11-20T10:58:01.083Z,18.42
2022-11-20T11:00:27.415Z,17.90
2022-11-20T11:02:58.724Z,19.98
2022-11-20T11:05:37.525Z,22.58
2022-11-20T11:08:06.336Z,20.07
2022-11-20T11:10:54.082Z,22.30
2022-11-20T11:13:21.771Z,22.23
2022-11-20T11:15:48.204Z,20.88
2022-11-20T11:18:27.804Z,19.77
2022-11-20T11:20:55.716Z,21.67
2022-11-20T11:23:40.781Z,22.25
2022-11-20T11:26:22.724Z,23.45
2022-11-20T11:28:56.690Z,26.70
2022-11-20T11:31:24.894Z,21.13
2022-11-20T11:33:51.338Z,25.50
2022-11-20T11:36:22.497Z,23.25
2022-11-20T11:38:53.249Z,21.92
2022-11-20T11:41:39.994Z,27.25
2022-11-20T11:44:40.853Z,24.55
2022-11-20T11:47:20.613Z,24.07
2022-11-20T11:49:46.956Z,21.60
2022-11-20T11:52:17.356Z,25.65
2022-11-20T11:54:46.637Z,23.58
2022-11-20T11:57:27.763Z,26.88
2022-11-20T12:00:14.641Z,23.80
2022-11-20T12:02:46.987Z,23.67
2022-11-20T12:05:21.815Z,26.88
2022-11-20T12:07:54.904Z,27.20
2022-11-20T12:10:57.225Z,28.75
2022-11-20T12:13:54.493Z,27.83
2022-11-20T12:16:21.691Z,25.13
2022-11-20T12:18:53.374Z,23.58
2022-11-20T12:21:37.839Z,24.80
2022-11-20T12:24:07.571Z,28.17
2022-11-20T12:27:15.043Z,28.67
2022-11-20T12:30:11.221Z,26.85
2022-11-20T12:32:40.524Z,31.63
2022-11-20T12:35:15.434Z,28.48
2022-11-20T12:38:04.258Z,24.58
2022-11-20T12:41:05.974Z,23.63
2022-11-20T12:43:58.842Z,25.75
2022-11-20T12:46:48.913Z,27.20
2022-11-20T12:49:31.570Z,26.63
2022-11-20T12:51:57.862Z,25.38
2022-11-20T12:54:41.124Z,26.50
2022-11-20T12:57:29.980Z,27.77
2022-11-20T13:00:09.212Z,28.40
2022-11-20T13:03:14.030Z,28.55
2022-11-20T13:05:52.539Z,25.63
2022-11-20T13:08:28.768Z,29.47
2022-11-20T13:11:01.193Z,27.63
2022-11-20T13:13:43.985Z,27.65
2022-11-20T13:16:25.060Z,25.13
2022-11-20T13:18:51.800Z,27.17
2022-11-20T13:21:23.651Z,25.63
2022-11-20T13:23:50.162Z,22.00
2022-11-20T13:26:20.866Z,24.88
2022-11-20T13:28:49.387Z,25.10
2022-11-20T13:31:36.527Z,24.98
2022-11-20T13:34:07.281Z,24.73
2022-11-20T13:36:35.941Z,25.60
2022-11-20T13:39:02.320Z,25.63
2022-11-20T13:41:38.756Z,24.58
2022-11-20T13:44:15.851Z,27.15
2022-11-20T13:46:45.811Z,26.93
2022-11-20T13:49:43.849Z,29.92
2022-11-20T13:52:39.484Z,26.30
2022-11-20T13:55:20.976Z,24.42
2022-11-20T13:58:05.710Z,24.45
2022-11-20T14:00:32.446Z,27.23
2022-11-20T14:03:28.381Z,29.67
2022-11-20T14:06:15.615Z,24.50
2022-11-20T14:08:46.855Z,26.50
2022-11-20T14:11:22.266Z,28.42
2022-11-20T14:14:05.058Z,23.50
2022-11-20T14:16:37.628Z,24.42
2022-11-20T14:19:22.925Z,23.95
2022-11-20T14:22:12.070Z,28.05
2022-11-20T14:24:38.597Z,27.48
2022-11-20T14:27:05.277Z,28.53
2022-11-20T14:29:37.252Z,24.48
2022-11-20T14:32:04.752Z,25.05
2022-11-20T14:34:33.519Z,25.27
2022-11-20T14:37:02.646Z,27.25
2022-11-20T14:39:43.161Z,22.50
2022-11-20T14:42:17.962Z,28.70
2022-11-20T14:44:45.448Z,27.08
2022-11-20T14:47:14.254Z,24.92
2022-11-20T14:49:41.498Z,32.30
2022-11-20T14:52:17.612Z,24.60
2022-11-20T14:54:46.204Z,27.38
2022-11-20T14:57:22.249Z,26.25
2022-11-20T14:59:48.678Z,28.55
2022-11-20T15:02:15.109Z,27.58
2022-11-20T15:04:49.368Z,25.03
2022-11-20T15:07:41.020Z,23.75
2022-11-20T15:10:09.275Z,28.40
2022-11-20T15:12:38.925Z,26.33
2022-11-20T15:15:06.697Z,32.03
2022-11-20T15:17:37.818Z,28.63
2022-11-20T15:20:12.672Z,32.03
2022-11-20T15:22:39.074Z,25.88
2022-11-20T15:25:14.316Z,26.85
2022-11-20T15:27:40.840Z,25.33
2022-11-20T15:30:17.737Z,27.30
2022-11-20T15:32:45.136Z,25.85
2022-11-20T15:35:12.134Z,29.45
2022-11-20T15:37:39.190Z,29.25
2022-11-20T15:40:06.838Z,29.17
2022-11-20T15:42:34.333Z,27.73
2022-11-20T15:45:01.097Z,28.35
2022-11-20T15:47:36.880Z,29.95
2022-11-20T15:50:03.813Z,28.60
2022-11-20T15:52:36.302Z,27.83
2022-11-20T15:55:11.218Z,28.80
2022-11-20T15:57:37.624Z,27.55
2022-11-20T16:00:04.572Z,26.60
2022-11-20T16:02:30.967Z,26.27
2022-11-20T16:04:57.316Z,26.58
2022-11-20T16:07:23.845Z,28.33
2022-11-20T16:09:50.240Z,29.73
2022-11-20T16:12:36.624Z,28.48
2022-11-20T16:15:21.600Z,28.67
2022-11-20T16:17:47.958Z,28.90
2022-11-20T16:20:14.287Z,27.93
2022-11-20T16:22:40.695Z,28.25
2022-11-20T16:25:07.827Z,26.50
2022-11-20T16:27:34.611Z,28.10
2022-11-20T16:30:00.944Z,26.90
2022-11-20T16:32:29.894Z,25.90
2022-11-20T16:34:56.513Z,27.17
2022-11-20T16:37:23.003Z,28.08
2022-11-20T16:39:49.755Z,27.58
2022-11-20T16:42:16.086Z,27.73
2022-11-20T16:44:46.840Z,24.13
2022-11-20T16:47:13.499Z,26.77
2022-11-20T16:49:39.849Z,25.83
2022-11-20T16:52:09.294Z,28.88
2022-11-20T16:54:35.651Z,23.88
2022-11-20T16:57:02.057Z,25.40
2022-11-20T16:59:28.423Z,23.85
2022-11-20T17:01:55.001Z,27.50
2022-11-20T17:04:22.010Z,24.30
2022-11-20T17:06:48.595Z,30.35
2022-11-20T17:09:15.058Z,27.37
2022-11-20T17:11:41.875Z,25.05
2022-11-20T17:14:14.436Z,27.08
2022-11-20T17:16:47.535Z,29.70
2022-11-20T17:19:14.866Z,23.65
2022-11-20T17:21:41.364Z,25.97
2022-11-20T17:24:10.609Z,22.92
2022-11-20T17:26:39.006Z,26.58
2022-11-20T17:29:07.662Z,25.38
2022-11-20T17:31:35.014Z,24.75
2022-11-20T17:34:02.324Z,27.20
2022-11-20T17:36:30.013Z,26.77
2022-11-20T17:38:56.825Z,23.40
2022-11-20T17:41:25.517Z,26.52
2022-11-20T17:43:56.968Z,29.27
2022-11-20T17:46:25.982Z,25.63
2022-11-20T17:48:52.594Z,28.77
2022-11-20T17:51:21.156Z,23.73
2022-11-20T17:53:53.431Z,27.83
2022-11-20T17:56:39.011Z,26.08
2022-11-20T17:59:06.449Z,30.33
2022-11-20T18:01:33.028Z,29.08
2022-11-20T18:03:59.701Z,29.73
2022-11-20T18:06:28.566Z,24.85
2022-11-20T18:08:55.428Z,25.63
2022-11-20T18:11:23.468Z,24.70
2022-11-20T18:14:11.246Z,22.33
2022-11-20T18:16:42.887Z,25.38
2022-11-20T18:19:11.441Z,19.90
2022-11-20T18:21:37.960Z,22.63
2022-11-20T18:24:04.645Z,23.57
2022-11-20T18:26:31.103Z,22.63
2022-11-20T18:28:57.859Z,20.95
2022-11-20T18:31:24.324Z,24.45
2022-11-20T18:33:52.491Z,25.88
2022-11-20T18:36:22.067Z,22.90
2022-11-20T18:38:50.962Z,22.23
2022-11-20T18:41:40.685Z,22.83
2022-11-20T18:44:35.626Z,24.90
2022-11-20T18:47:04.848Z,23.77
2022-11-20T18:49:34.389Z,22.90
2022-11-20T18:52:00.908Z,22.05
2022-11-20T18:54:30.368Z,26.13
2022-11-20T18:56:56.855Z,23.80
2022-11-20T18:59:23.636Z,25.45
2022-11-20T19:01:50.278Z,22.90
2022-11-20T19:04:21.039Z,19.90
2022-11-20T19:06:52.821Z,20.27
2022-11-20T19:09:19.584Z,26.90
2022-11-20T19:11:46.089Z,23.85
2022-11-20T19:14:12.541Z,22.90
2022-11-20T19:16:39.216Z,23.92
2022-11-20T19:19:07.376Z,26.35
2022-11-20T19:21:34.944Z,26.15
2022-11-20T19:24:03.179Z,22.60
2022-11-20T19:26:30.159Z,26.40
2022-11-20T19:28:56.736Z,22.92
2022-11-20T19:31:26.793Z,26.98
2022-11-20T19:33:58.816Z,23.63
2022-11-20T19:36:28.317Z,23.30
2022-11-20T19:38:55.310Z,19.93
2022-11-20T19:41:31.426Z,25.08
2022-11-20T19:43:59.417Z,22.00
2022-11-20T19:46:27.602Z,22.55
2022-11-20T19:48:54.701Z,25.80
2022-11-20T19:51:24.882Z,22.90
2022-11-20T19:53:51.821Z,27.48
2022-11-20T19:56:18.759Z,24.25
2022-11-20T19:58:45.197Z,23.25
2022-11-20T20:01:20.070Z,19.83
2022-11-20T20:03:47.706Z,25.27
2022-11-20T20:06:17.004Z,25.60
2022-11-20T20:08:44.110Z,23.23
2022-11-20T20:11:14.328Z,23.15
2022-11-20T20:13:41.764Z,24.45
2022-11-20T20:16:10.206Z,21.10
2022-11-20T20:18:36.908Z,26.17
2022-11-20T20:21:08.528Z,25.70
2022-11-20T20:23:38.483Z,25.00
2022-11-20T20:26:07.437Z,27.27
2022-11-20T20:28:35.258Z,25.77
2022-11-20T20:31:09.683Z,25.38
2022-11-20T20:33:37.281Z,25.00
2022-11-20T20:36:08.955Z,26.55
2022-11-20T20:38:35.371Z,27.17
2022-11-20T20:41:02.223Z,24.90
2022-11-20T20:43:28.652Z,26.23
2022-11-20T20:45:55.551Z,25.92
2022-11-20T20:48:24.334Z,26.48
2022-11-20T20:50:59.314Z,30.15
2022-11-20T20:53:27.372Z,28.63
2022-11-20T20:55:58.157Z,27.95
2022-11-20T20:58:25.466Z,26.27
2022-11-20T21:00:52.244Z,31.58
2022-11-20T21:03:19.550Z,30.85
2022-11-20T21:05:46.993Z,28.27
2022-11-20T21:08:22.404Z,29.95
2022-11-20T21:10:49.809Z,29.05
2022-11-20T21:13:16.625Z,25.92
2022-11-20T21:15:45.700Z,31.23
2022-11-20T21:18:12.061Z,25.83
2022-11-20T21:20:59.963Z,30.08
2022-11-20T21:23:26.475Z,26.67
2022-11-20T21:25:52.919Z,25.35
2022-11-20T21:28:19.503Z,28.75
2022-11-20T21:30:46.595Z,24.53
2022-11-20T21:33:13.315Z,29.13
2022-11-20T21:35:41.287Z,26.42
2022-11-20T21:38:07.801Z,25.13
2022-11-20T21:40:34.180Z,29.33
2022-11-20T21:43:00.759Z,28.17
2022-11-20T21:45:27.210Z,26.83
2022-11-20T21:47:54.813Z,29.00
2022-11-20T21:50:24.598Z,32.50
2022-11-20T21:52:51.012Z,30.70
2022-11-20T21:55:17.520Z,26.13
2022-11-20T21:57:43.947Z,28.45
2022-11-20T22:00:12.218Z,28.02
2022-11-20T22:02:40.284Z,25.48
2022-11-20T22:05:08.309Z,32.17
2022-11-20T22:07:35.335Z,26.43
2022-11-20T22:10:01.796Z,31.70
2022-11-20T22:12:28.388Z,27.67
2022-11-20T22:14:54.914Z,30.33
2022-11-20T22:17:41.228Z,30.05
2022-11-20T22:20:08.579Z,31.10
2022-11-20T22:22:34.990Z,31.40
2022-11-20T22:25:01.341Z,36.28
2022-11-20T22:27:32.703Z,29.85
2022-11-20T22:29:59.116Z,34.50
2022-11-20T22:32:25.613Z,31.73
2022-11-20T22:34:52.150Z,31.08
2022-11-20T22:37:18.556Z,30.30
2022-11-20T22:39:44.992Z,34.50
2022-11-20T22:42:11.402Z,32.53
2022-11-20T22:44:37.785Z,31.63
2022-11-20T22:47:08.695Z,31.63
2022-11-20T22:49:37.618Z,30.85
2022-11-20T22:52:04.124Z,30.20
2022-11-20T22:54:30.542Z,32.83
2022-11-20T22:56:56.975Z,26.97
2022-11-20T22:59:23.478Z,34.53
2022-11-20T23:01:53.159Z,31.67
2022-11-20T23:04:21.941Z,35.72
2022-11-20T23:06:50.439Z,34.33
2022-11-20T23:09:17.513Z,28.83
2022-11-20T23:11:46.619Z,32.70
2022-11-20T23:14:15.326Z,28.02
2022-11-20T23:16:42.312Z,30.35
2022-11-20T23:19:14.582Z,27.95
2022-11-20T23:21:42.325Z,30.13
2022-11-20T23:24:09.750Z,28.58
2022-11-20T23:26:39.201Z,28.85
2022-11-20T23:29:06.502Z,33.13
2022-11-20T23:31:34.956Z,31.17
2022-11-20T23:34:01.636Z,27.40
2022-11-20T23:36:28.331Z,34.30
2022-11-20T23:38:54.693Z,30.10
2022-11-20T23:41:21.255Z,27.58
2022-11-20T23:43:47.660Z,29.17
2022-11-20T23:46:16.664Z,28.17
2022-11-20T23:48:45.229Z,30.05
2022-11-20T23:51:12.299Z,28.08
2022-11-20T23:53:38.754Z,27.67
2022-11-20T23:56:06.045Z,28.35
2022-11-20T23:58:34.777Z,24.97
